NK19 weather

Potoczak Airport
Clarence Center, New York, United States

Public forecast

Using degrees Fahrenheit for public forecast. Weather courtesy of forecast.io.

Closest aviation weather report (METAR) to Potoczak Airport

Closest report is Buffalo Niagara International Airport, 7.9 nm (14.6 km) SSW. Retrieved 2019/10/17 21:54 UTC (13 minutes ago):

KBUF 172154Z 30014G22KT 10SM OVC017 07/04 A2971 RMK AO2 PK WND 30027/2113 SLP066 T00670039

Closest aviation forecast (TAF) to Potoczak Airport

Closest forecast is Buffalo Niagara International Airport, 7.9 nm (14.6 km) SSW. Retrieved 2019/10/17 18:22 UTC (4 hours ago):

TAF KBUF 171720Z 1718/1818 31018G28KT P6SM -RA OVC015 FM172100 30015G25KT P6SM VCSH OVC015 FM180100 30014G21KT P6SM VCSH OVC015 FM180400 30013KT P6SM OVC020